createdAt,value
2019-04-06T03:02:49.450Z,40.90
2019-04-06T03:05:18.608Z,37.13
2019-04-06T03:07:47.536Z,39.43
2019-04-06T03:10:16.089Z,39.20
2019-04-06T03:12:44.667Z,41.37
2019-04-06T03:15:13.393Z,41.87
2019-04-06T03:17:42.434Z,38.53
2019-04-06T03:20:11.363Z,41.23
2019-04-06T03:22:40.013Z,36.77
2019-04-06T03:25:08.587Z,42.33
2019-04-06T03:27:37.159Z,37.17
2019-04-06T03:30:06.898Z,40.20
2019-04-06T03:32:35.777Z,38.97
2019-04-06T03:35:04.602Z,39.90
2019-04-06T03:37:33.519Z,36.00
2019-04-06T03:40:02.374Z,38.97
2019-04-06T03:42:30.967Z,36.90
2019-04-06T03:44:59.529Z,37.53
2019-04-06T03:47:28.507Z,37.90
2019-04-06T03:49:57.156Z,39.17
2019-04-06T03:52:26.002Z,40.40
2019-04-06T03:54:54.833Z,37.53
2019-04-06T03:57:23.438Z,37.27
2019-04-06T03:59:52.279Z,37.13
2019-04-06T04:02:20.871Z,37.77
2019-04-06T04:04:49.691Z,39.87
2019-04-06T04:07:18.369Z,37.43
2019-04-06T04:09:46.940Z,36.80
2019-04-06T04:12:15.506Z,38.27
2019-04-06T04:14:44.117Z,36.40
2019-04-06T04:17:12.946Z,36.70
2019-04-06T04:19:41.874Z,41.87
2019-04-06T04:22:10.463Z,39.90
2019-04-06T04:24:39.285Z,39.27
2019-04-06T04:27:08.386Z,35.33
2019-04-06T04:29:36.919Z,38.77
2019-04-06T04:32:05.531Z,35.83
2019-04-06T04:34:34.148Z,37.63
2019-04-06T04:37:02.743Z,36.97
2019-04-06T04:39:31.697Z,39.30
2019-04-06T04:42:00.349Z,37.63
2019-04-06T04:44:29.546Z,37.70
2019-04-06T04:46:58.257Z,37.00
2019-04-06T04:49:26.855Z,38.70
2019-04-06T04:51:55.439Z,34.67
2019-04-06T04:54:24.275Z,35.50
2019-04-06T04:56:52.955Z,39.70
2019-04-06T04:59:21.583Z,36.63
2019-04-06T05:01:50.158Z,37.63
2019-04-06T05:04:19.127Z,37.10
2019-04-06T05:06:48.011Z,37.30
2019-04-06T05:09:17.105Z,37.03
2019-04-06T05:11:45.655Z,37.20
2019-04-06T05:14:51.089Z,39.33
2019-04-06T05:17:19.930Z,40.17
2019-04-06T05:19:48.747Z,41.50
2019-04-06T05:22:17.374Z,40.77
2019-04-06T05:24:45.940Z,41.50
2019-04-06T05:27:14.904Z,42.43
2019-04-06T05:29:43.767Z,41.63
2019-04-06T05:32:12.326Z,43.83
2019-04-06T05:34:41.184Z,39.63
2019-04-06T05:37:09.804Z,35.87
2019-04-06T05:39:38.386Z,39.20
2019-04-06T05:42:07.006Z,39.33
2019-04-06T05:44:35.585Z,41.23
2019-04-06T05:47:04.171Z,38.27
2019-04-06T05:49:32.734Z,42.77
2019-04-06T05:52:01.333Z,40.43
2019-04-06T05:54:30.082Z,37.83
2019-04-06T05:56:58.649Z,43.77
2019-04-06T05:59:27.428Z,40.87
2019-04-06T06:01:56.296Z,38.50
2019-04-06T06:04:25.312Z,43.13
2019-04-06T06:06:53.868Z,42.03
2019-04-06T06:09:22.619Z,40.97
2019-04-06T06:11:51.383Z,39.67
2019-04-06T06:14:20.010Z,37.27
2019-04-06T06:16:48.598Z,39.37
2019-04-06T06:19:17.462Z,39.57
2019-04-06T06:21:46.027Z,43.53
2019-04-06T06:24:14.966Z,38.80
2019-04-06T06:26:43.638Z,36.73
2019-04-06T06:29:12.308Z,41.37
2019-04-06T06:31:41.178Z,37.10
2019-04-06T06:34:09.743Z,38.87
2019-04-06T06:36:38.327Z,37.90
2019-04-06T06:39:08.160Z,42.97
2019-04-06T06:41:37.022Z,41.03
2019-04-06T06:44:05.966Z,39.13
2019-04-06T06:46:34.598Z,43.00
2019-04-06T06:49:03.231Z,37.63
2019-04-06T06:51:31.816Z,41.23
2019-04-06T06:54:00.398Z,36.07
2019-04-06T06:56:28.963Z,38.47
2019-04-06T06:58:57.530Z,37.73
2019-04-06T07:01:26.498Z,36.00
2019-04-06T07:03:55.551Z,39.90
2019-04-06T07:06:24.219Z,38.60
2019-04-06T07:08:52.787Z,34.77
2019-04-06T07:11:21.513Z,40.67
2019-04-06T07:13:50.211Z,38.90
2019-04-06T07:16:18.966Z,37.93
2019-04-06T07:18:47.567Z,40.23
2019-04-06T07:21:16.904Z,40.63
2019-04-06T07:23:45.810Z,36.83
2019-04-06T07:26:14.375Z,41.40
2019-04-06T07:28:42.951Z,37.03
2019-04-06T07:31:11.531Z,40.20
2019-04-06T07:33:40.118Z,36.53
2019-04-06T07:36:08.694Z,40.93
2019-04-06T07:38:38.292Z,40.43
2019-04-06T07:41:07.513Z,42.00
2019-04-06T07:43:36.305Z,37.67
2019-04-06T07:46:05.053Z,36.40
2019-04-06T07:48:33.706Z,39.83
2019-04-06T07:51:02.298Z,37.33
2019-04-06T07:53:30.862Z,40.57
2019-04-06T07:55:59.463Z,39.73
2019-04-06T07:58:28.040Z,39.37
2019-04-06T08:00:56.679Z,34.83
2019-04-06T08:03:25.291Z,34.83
2019-04-06T08:05:53.897Z,34.20
2019-04-06T08:08:22.498Z,40.47
2019-04-06T08:10:51.111Z,36.30
2019-04-06T08:13:20.062Z,36.60
2019-04-06T08:15:48.701Z,33.57
2019-04-06T08:18:17.302Z,30.53
2019-04-06T08:20:46.051Z,28.70
2019-04-06T08:23:14.650Z,30.23
2019-04-06T08:25:43.218Z,30.70
2019-04-06T08:28:11.807Z,27.53
2019-04-06T08:30:46.368Z,26.53
2019-04-06T08:33:10.985Z,25.97
2019-04-06T08:35:39.545Z,26.80
2019-04-06T08:38:08.122Z,23.33
2019-04-06T08:40:36.985Z,24.17
2019-04-06T08:43:05.562Z,23.50
2019-04-06T08:45:34.182Z,23.43
2019-04-06T08:48:02.768Z,20.93
2019-04-06T08:50:32.320Z,25.02
2019-04-06T08:53:00.866Z,20.30
2019-04-06T08:55:29.426Z,19.82
2019-04-06T08:57:58.018Z,22.55
2019-04-06T09:00:26.592Z,18.62
2019-04-06T09:02:55.299Z,21.15
2019-04-06T09:05:23.925Z,20.90
2019-04-06T09:07:53.095Z,20.52
2019-04-06T09:10:21.695Z,20.25
2019-04-06T09:12:50.261Z,19.73
2019-04-06T09:15:18.832Z,17.65
2019-04-06T09:17:47.438Z,17.82
2019-04-06T09:20:17.371Z,21.02
2019-04-06T09:22:46.080Z,18.77
2019-04-06T09:25:14.668Z,17.85
2019-04-06T09:27:43.220Z,18.27
2019-04-06T09:30:11.884Z,15.88
2019-04-06T09:32:40.445Z,18.15
2019-04-06T09:35:09.172Z,17.23
2019-04-06T09:37:37.846Z,19.35
2019-04-06T09:40:06.661Z,22.32
2019-04-06T09:42:35.282Z,18.17
2019-04-06T09:45:24.393Z,20.90
2019-04-06T09:47:58.049Z,19.73
2019-04-06T09:50:52.046Z,15.58
2019-04-06T09:53:42.782Z,18.67
2019-04-06T09:56:29.504Z,14.98
2019-04-06T09:59:34.602Z,19.30
2019-04-06T10:02:19.271Z,15.83
2019-04-06T10:04:55.817Z,19.12
2019-04-06T10:07:35.073Z,17.95
2019-04-06T10:10:21.713Z,20.25
2019-04-06T10:13:09.374Z,16.35
2019-04-06T10:15:57.047Z,16.60
2019-04-06T10:18:51.170Z,16.87
2019-04-06T10:21:37.572Z,16.77
2019-04-06T10:24:34.460Z,18.25
2019-04-06T10:27:27.617Z,15.93
2019-04-06T10:30:09.341Z,18.20
2019-04-06T10:32:47.403Z,15.60
2019-04-06T10:35:31.732Z,16.40
2019-04-06T10:38:24.745Z,15.43
2019-04-06T10:41:05.970Z,13.90
2019-04-06T10:43:53.646Z,14.18
2019-04-06T10:46:40.774Z,13.22
2019-04-06T10:49:22.147Z,13.25
2019-04-06T10:52:16.526Z,13.03
2019-04-06T10:55:07.170Z,11.43
2019-04-06T10:57:57.710Z,13.75
2019-04-06T11:00:42.144Z,15.68
2019-04-06T11:03:26.090Z,12.05
2019-04-06T11:06:06.453Z,11.60
2019-04-06T11:09:12.676Z,12.50
2019-04-06T11:12:00.605Z,10.13
2019-04-06T11:14:51.438Z,9.48
2019-04-06T11:17:42.013Z,10.05
2019-04-06T11:20:35.482Z,16.17
2019-04-06T11:23:29.319Z,12.50
2019-04-06T11:26:11.309Z,10.18
2019-04-06T11:29:05.507Z,8.80
2019-04-06T11:31:57.385Z,7.53
2019-04-06T11:34:45.510Z,9.23
2019-04-06T11:37:39.927Z,7.72
2019-04-06T11:40:19.290Z,7.92
2019-04-06T11:42:58.650Z,8.35
2019-04-06T11:45:33.544Z,9.40
2019-04-06T11:48:33.737Z,9.63
2019-04-06T11:51:30.635Z,9.28
2019-04-06T11:54:08.598Z,8.53
2019-04-06T11:56:56.330Z,7.75
2019-04-06T11:59:59.647Z,10.90
2019-04-06T12:02:46.286Z,8.93
2019-04-06T12:05:31.548Z,7.28
2019-04-06T12:08:18.065Z,8.55
2019-04-06T12:10:55.328Z,8.30
2019-04-06T12:13:40.155Z,8.50
2019-04-06T12:16:26.728Z,8.50
2019-04-06T12:19:13.603Z,7.92
2019-04-06T12:22:04.694Z,8.48
2019-04-06T12:25:01.713Z,8.03
2019-04-06T12:27:50.850Z,8.10
2019-04-06T12:30:46.855Z,7.33
2019-04-06T12:33:29.131Z,7.08
2019-04-06T12:36:07.063Z,7.62
2019-04-06T12:38:54.056Z,8.60
2019-04-06T12:41:41.726Z,7.25
2019-04-06T12:44:19.066Z,7.20
2019-04-06T12:47:05.446Z,7.20
2019-04-06T12:49:46.031Z,6.83
2019-04-06T12:52:40.238Z,7.50
2019-04-06T12:55:39.847Z,6.67
2019-04-06T12:58:26.198Z,7.92
2019-04-06T13:01:18.371Z,6.20
2019-04-06T13:04:04.963Z,6.40
2019-04-06T13:06:58.984Z,9.53
2019-04-06T13:09:47.559Z,7.10
2019-04-06T13:12:34.534Z,6.95
2019-04-06T13:15:21.377Z,8.48
2019-04-06T13:18:09.123Z,7.17
2019-04-06T13:20:56.786Z,8.05
2019-04-06T13:23:41.030Z,8.73
2019-04-06T13:26:35.146Z,8.35
2019-04-06T13:29:29.224Z,7.60
2019-04-06T13:32:32.194Z,7.53
2019-04-06T13:35:10.235Z,7.72
2019-04-06T13:37:58.863Z,6.75
2019-04-06T13:40:52.710Z,7.12
2019-04-06T13:43:27.555Z,10.20
2019-04-06T13:46:15.414Z,6.47
2019-04-06T13:49:03.369Z,6.50
2019-04-06T13:51:53.211Z,6.92
2019-04-06T13:54:35.449Z,6.95
2019-04-06T13:57:14.122Z,7.97
2019-04-06T14:00:00.878Z,7.28
2019-04-06T14:02:44.881Z,7.25
2019-04-06T14:05:38.462Z,8.33
2019-04-06T14:08:28.957Z,8.00
2019-04-06T14:11:16.651Z,8.35
2019-04-06T14:14:13.217Z,10.10
2019-04-06T14:17:19.193Z,10.90
2019-04-06T14:20:07.151Z,7.53
2019-04-06T14:23:07.058Z,7.75
2019-04-06T14:26:01.065Z,6.55
2019-04-06T14:28:36.879Z,8.93
2019-04-06T14:31:28.976Z,7.60
2019-04-06T14:34:14.012Z,7.92
2019-04-06T14:36:57.883Z,7.17
2019-04-06T14:39:40.121Z,6.70
2019-04-06T14:42:25.893Z,7.53
2019-04-06T14:45:00.641Z,10.23
2019-04-06T14:47:58.275Z,7.25
2019-04-06T14:50:48.986Z,7.08
2019-04-06T14:53:40.329Z,6.53
2019-04-06T14:56:15.215Z,8.87
2019-04-06T14:59:01.639Z,7.73
2019-04-06T15:01:42.392Z,6.83
2019-04-06T15:04:18.903Z,9.20
2019-04-06T15:07:10.798Z,8.87
2019-04-06T15:09:39.482Z,8.83
2019-04-06T15:12:17.418Z,9.17
2019-04-06T15:15:04.040Z,7.57
2019-04-06T15:17:46.926Z,7.80
2019-04-06T15:20:37.783Z,9.67
2019-04-06T15:23:21.989Z,8.30
2019-04-06T15:26:06.727Z,10.80
2019-04-06T15:28:53.098Z,8.67
2019-04-06T15:31:56.462Z,7.23
2019-04-06T15:34:50.893Z,7.23
2019-04-06T15:37:36.610Z,7.63
2019-04-06T15:40:19.476Z,11.10
2019-04-06T15:43:00.495Z,8.70
2019-04-06T15:45:36.920Z,8.03
2019-04-06T15:48:15.398Z,7.83
2019-04-06T15:51:15.874Z,8.40
2019-04-06T15:53:54.821Z,7.20
2019-04-06T15:56:29.990Z,9.67
2019-04-06T15:59:07.492Z,8.63
2019-04-06T16:01:43.695Z,8.83
2019-04-06T16:04:30.386Z,7.97
2019-04-06T16:07:10.598Z,8.17
2019-04-06T16:09:51.349Z,10.60
2019-04-06T16:12:39.059Z,8.70
2019-04-06T16:15:28.278Z,8.37
2019-04-06T16:18:21.964Z,8.40
2019-04-06T16:21:12.606Z,9.10
2019-04-06T16:23:47.362Z,7.63
2019-04-06T16:26:41.187Z,9.43
2019-04-06T16:29:25.086Z,8.50
2019-04-06T16:32:16.080Z,8.17
2019-04-06T16:34:56.860Z,8.30
2019-04-06T16:37:43.578Z,12.47
2019-04-06T16:40:25.569Z,8.97
2019-04-06T16:43:06.214Z,8.17
2019-04-06T16:45:56.986Z,10.20
2019-04-06T16:48:51.372Z,10.80
2019-04-06T16:51:57.649Z,7.67
2019-04-06T16:54:40.119Z,9.77
2019-04-06T16:57:26.550Z,9.33
2019-04-06T17:00:01.716Z,10.03
2019-04-06T17:02:54.602Z,8.10
2019-04-06T17:05:48.493Z,10.10
2019-04-06T17:08:27.109Z,10.60
2019-04-06T17:11:20.792Z,12.63
2019-04-06T17:14:07.794Z,11.10
2019-04-06T17:16:58.758Z,10.70
2019-04-06T17:19:52.674Z,12.47
2019-04-06T17:22:39.045Z,17.17
2019-04-06T17:25:20.132Z,23.70
2019-04-06T17:27:58.842Z,18.60
2019-04-06T17:30:55.839Z,13.77
2019-04-06T17:33:47.167Z,8.57
2019-04-06T17:36:33.991Z,7.93
2019-04-06T17:39:40.179Z,7.93
2019-04-06T17:42:27.911Z,8.30
2019-04-06T17:45:10.375Z,8.93
2019-04-06T17:48:10.211Z,8.23
2019-04-06T17:51:03.776Z,9.13
2019-04-06T17:53:39.800Z,9.37
2019-04-06T17:56:26.552Z,8.57
2019-04-06T17:59:13.385Z,8.03
2019-04-06T18:01:54.580Z,7.67
2019-04-06T18:04:42.378Z,8.93
2019-04-06T18:07:24.690Z,12.63
2019-04-06T18:10:11.862Z,9.90
2019-04-06T18:13:08.869Z,8.40
2019-04-06T18:15:38.036Z,8.77
2019-04-06T18:18:06.736Z,9.60
2019-04-06T18:20:35.377Z,8.67
2019-04-06T18:23:03.958Z,7.00
2019-04-06T18:25:32.513Z,8.03
2019-04-06T18:28:01.585Z,9.40
2019-04-06T18:30:30.530Z,7.20
2019-04-06T18:33:06.015Z,7.77
2019-04-06T18:35:34.596Z,7.60
2019-04-06T18:38:12.862Z,8.43
2019-04-06T18:40:41.614Z,6.83
2019-04-06T18:43:10.688Z,8.63
2019-04-06T18:45:39.838Z,7.37
2019-04-06T18:48:08.978Z,6.97
2019-04-06T18:50:38.959Z,7.53
2019-04-06T18:53:08.056Z,6.43
2019-04-06T18:55:36.944Z,8.63
2019-04-06T18:58:11.248Z,10.90
2019-04-06T19:00:35.967Z,9.77
2019-04-06T19:03:12.530Z,8.67
2019-04-06T19:05:34.879Z,8.70
2019-04-06T19:08:03.445Z,7.47
2019-04-06T19:10:32.503Z,6.50
2019-04-06T19:13:01.178Z,6.20
2019-04-06T19:15:29.774Z,7.70
2019-04-06T19:17:58.842Z,8.20
2019-04-06T19:20:27.489Z,6.60
2019-04-06T19:22:56.178Z,5.60
2019-04-06T19:25:25.072Z,7.33
2019-04-06T19:27:53.718Z,7.97
2019-04-06T19:30:22.306Z,6.07
2019-04-06T19:32:50.986Z,7.70
2019-04-06T19:35:19.890Z,11.63
2019-04-06T19:37:48.613Z,14.17
2019-04-06T19:40:36.526Z,12.53
2019-04-06T19:43:05.485Z,10.23
2019-04-06T19:45:34.043Z,9.63
2019-04-06T19:48:02.988Z,11.73
2019-04-06T19:50:31.659Z,9.30
2019-04-06T19:53:00.266Z,11.40
2019-04-06T19:55:29.153Z,11.83
2019-04-06T19:57:58.107Z,10.77
2019-04-06T20:00:27.250Z,9.80
2019-04-06T20:02:56.255Z,9.93
2019-04-06T20:05:25.151Z,10.93
2019-04-06T20:07:54.047Z,10.53
2019-04-06T20:10:23.072Z,11.67
2019-04-06T20:12:52.020Z,11.73
2019-04-06T20:15:20.603Z,10.17
2019-04-06T20:17:49.197Z,10.53
2019-04-06T20:20:17.763Z,10.40
2019-04-06T20:22:46.910Z,8.97
2019-04-06T20:25:15.948Z,12.57
2019-04-06T20:27:44.794Z,11.33
2019-04-06T20:30:13.539Z,10.83
2019-04-06T20:33:01.635Z,12.77
2019-04-06T20:35:30.488Z,11.20
2019-04-06T20:37:59.254Z,11.87
2019-04-06T20:40:28.641Z,12.67
2019-04-06T20:42:57.258Z,9.57
2019-04-06T20:45:25.901Z,11.07
2019-04-06T20:47:54.912Z,12.00
2019-04-06T20:50:23.534Z,10.47
2019-04-06T20:52:52.537Z,9.90
2019-04-06T20:55:21.235Z,11.23
2019-04-06T20:57:49.822Z,13.23
2019-04-06T21:00:18.803Z,11.70
2019-04-06T21:02:47.441Z,9.93
2019-04-06T21:05:16.614Z,9.27
2019-04-06T21:07:45.695Z,13.03
2019-04-06T21:10:14.302Z,8.87
2019-04-06T21:12:43.314Z,7.73
2019-04-06T21:15:18.985Z,8.83
2019-04-06T21:17:42.707Z,8.67
2019-04-06T21:20:11.773Z,7.30
2019-04-06T21:22:40.853Z,7.80
2019-04-06T21:25:10.041Z,8.00
2019-04-06T21:27:38.602Z,5.70
2019-04-06T21:30:07.186Z,8.63
2019-04-06T21:32:36.071Z,7.03
2019-04-06T21:35:05.557Z,5.83
2019-04-06T21:37:34.568Z,6.97
2019-04-06T21:40:03.183Z,6.70
2019-04-06T21:42:33.034Z,5.90
2019-04-06T21:45:02.030Z,6.03
2019-04-06T21:47:30.805Z,6.03
2019-04-06T21:49:59.446Z,6.93
2019-04-06T21:52:28.612Z,5.27
2019-04-06T21:54:57.223Z,5.57
2019-04-06T21:57:26.321Z,4.80
2019-04-06T21:59:55.193Z,6.03
